Terminal Aerodrome Forecast
Issued by NWS

Home | Current Version | Previous Version | Text Only | Print | Product List | Glossary On
Versions: 1 2 3 4 5 6 7 8 9 10 11 12 13 14 15 16
000
FTUS43 KSGF 302236 AAA
TAFJLN
TAF AMD
KJLN 302236Z 3023/3118 VRB05KT 4SM -TSRA BR BKN040CB
     FM302315 VRB05KT P6SM VCSH SCT040 BKN100
     FM310000 18007KT P6SM SCT250=

USA.gov is the U.S. government's official web portal to all federal, state and local government web resources and services.